Time;durP1;ratioP1;P1;durP2;ratioP2;P2;SDS_P1;SDS_P2;PMS_P1;PMS_P2;Temp;Humidity;BMP_temperature;BMP_pressure;BME280_temperature;BME280_humidity;BME280_pressure;Samples;Min_cycle;Max_cycle;Signal;HPM_P1;HPM_P2
2022/02/21 00:01:14;;;;;;;8.38;4.35;;;;;;;5.47;89.61;98617.17;1701269;84;27295;-73
2022/02/21 00:03:40;;;;;;;7.75;4.03;;;;;;;5.50;89.56;98612.52;1701157;84;25553;-71
2022/02/21 00:06:06;;;;;;;6.40;5.05;;;;;;;5.54;89.34;98616.70;1701142;84;25594;-71
2022/02/21 00:08:33;;;;;;;7.80;4.65;;;;;;;5.56;89.17;98595.14;1687653;85;25432;-72
2022/02/21 00:11:01;;;;;;;6.95;4.10;;;;;;;5.60;89.10;98588.59;1682930;84;25622;-72
2022/02/21 00:13:29;;;;;;;5.92;4.08;;;;;;;5.65;88.88;98594.36;1717905;83;27336;-73
2022/02/21 00:15:55;;;;;;;8.55;4.05;;;;;;;5.66;88.74;98577.17;1705113;84;25640;-73
2022/02/21 00:18:22;;;;;;;5.75;3.72;;;;;;;5.68;88.67;98585.12;1701147;83;25465;-73
2022/02/21 00:20:48;;;;;;;8.50;4.28;;;;;;;5.73;88.43;98580.15;1701102;83;25991;-73
2022/02/21 00:23:14;;;;;;;7.05;4.10;;;;;;;5.74;88.35;98573.69;1701139;83;25440;-73
2022/02/21 00:25:41;;;;;;;7.00;3.70;;;;;;;5.79;88.21;98584.25;1698536;84;27372;-73
2022/02/21 00:28:07;;;;;;;4.47;3.35;;;;;;;5.82;88.00;98572.86;1694583;84;25639;-73
2022/02/21 00:30:34;;;;;;;5.97;3.75;;;;;;;5.85;87.81;98566.08;1697178;84;25552;-73
2022/02/21 00:33:00;;;;;;;5.03;3.42;;;;;;;5.87;87.53;98555.25;1697084;84;25673;-72
2022/02/21 00:35:26;;;;;;;7.10;3.47;;;;;;;5.90;87.31;98549.81;1677118;84;25569;-72
2022/02/21 00:37:53;;;;;;;5.05;3.70;;;;;;;5.92;87.14;98552.39;1692851;84;27397;-72
2022/02/21 00:40:20;;;;;;;5.30;3.20;;;;;;;5.94;87.02;98541.34;1692769;84;25585;-73
2022/02/21 00:42:46;;;;;;;6.17;3.52;;;;;;;5.97;86.86;98539.39;1692813;84;25563;-73
2022/02/21 00:45:13;;;;;;;6.22;3.17;;;;;;;5.98;86.72;98533.70;1697096;84;25585;-73
2022/02/21 00:47:41;;;;;;;5.80;3.20;;;;;;;6.02;86.52;98531.16;1677104;84;25483;-73
2022/02/21 00:50:09;;;;;;;6.45;3.58;;;;;;;6.04;86.39;98527.59;1697126;84;27488;-73
2022/02/21 00:52:36;;;;;;;6.03;3.20;;;;;;;6.06;86.24;98522.72;1697015;84;25637;-73
2022/02/21 00:55:05;;;;;;;4.47;2.92;;;;;;;6.11;86.11;98511.00;1692811;84;25636;-73
2022/02/21 00:57:44;;;;;;;4.05;2.50;;;;;;;6.12;85.93;98509.34;1692872;84;25420;-72
2022/02/21 01:00:11;;;;;;;6.80;3.05;;;;;;;6.16;85.62;98504.10;1693178;84;25417;-72
2022/02/21 01:02:37;;;;;;;3.67;2.70;;;;;;;6.19;85.57;98496.75;1697055;84;27890;-72
2022/02/21 01:05:06;;;;;;;6.55;3.27;;;;;;;6.21;85.44;98502.58;1696979;84;25545;-73
2022/02/21 01:07:32;;;;;;;5.22;3.02;;;;;;;6.22;85.20;98483.25;1697038;84;25648;-73
2022/02/21 01:09:59;;;;;;;6.15;2.92;;;;;;;6.25;85.10;98480.70;1697029;84;25888;-73
2022/02/21 01:12:25;;;;;;;5.67;3.22;;;;;;;6.28;84.82;98483.28;1697215;84;25511;-72
2022/02/21 01:14:52;;;;;;;7.70;3.17;;;;;;;6.30;84.81;98487.77;1692853;84;27333;-73
2022/02/21 01:17:22;;;;;;;5.40;2.90;;;;;;;6.32;84.71;98464.86;1697089;84;25644;-73
2022/02/21 01:19:50;;;;;;;3.92;3.00;;;;;;;6.35;84.63;98460.19;1677400;84;25546;-73
2022/02/21 01:22:17;;;;;;;4.53;2.80;;;;;;;6.38;84.44;98453.36;1692986;84;25560;-73
2022/02/21 01:24:44;;;;;;;5.90;3.05;;;;;;;6.40;84.18;98454.39;1697102;84;25605;-74
2022/02/21 01:27:14;;;;;;;4.58;3.00;;;;;;;6.43;84.27;98432.25;1703682;84;27928;-74
2022/02/21 01:29:40;;;;;;;4.85;3.05;;;;;;;6.45;84.18;98438.08;1688187;84;25720;-73
2022/02/21 01:32:08;;;;;;;4.05;3.00;;;;;;;6.49;84.10;98457.25;1705094;84;25546;-73
2022/02/21 01:34:35;;;;;;;5.90;3.02;;;;;;;6.50;83.94;98423.12;1717866;83;25563;-73
2022/02/21 01:37:02;;;;;;;5.53;3.00;;;;;;;6.52;83.71;98431.09;1705199;84;25626;-73
2022/02/21 01:39:29;;;;;;;5.53;3.20;;;;;;;6.55;83.68;98418.89;1701123;83;27893;-73
2022/02/21 01:41:55;;;;;;;5.65;3.02;;;;;;;6.56;83.76;98417.78;1700999;84;25622;-73
2022/02/21 01:44:39;;;;;;;5.92;3.35;;;;;;;6.57;83.75;98403.22;1701093;84;25618;-73
2022/02/21 01:47:10;;;;;;;4.90;3.12;;;;;;;6.57;84.01;98417.22;1701132;83;25841;-71
2022/02/21 01:49:36;;;;;;;4.97;3.10;;;;;;;6.56;84.37;98386.12;1701203;84;25549;-72
2022/02/21 01:52:05;;;;;;;5.20;3.25;;;;;;;6.53;84.47;98393.70;1687634;85;27345;-73
2022/02/21 01:54:32;;;;;;;4.92;3.45;;;;;;;6.51;84.74;98397.84;1705209;84;25474;-73
2022/02/21 01:57:00;;;;;;;4.70;2.98;;;;;;;6.48;85.13;98381.81;1689168;85;25554;-73
2022/02/21 01:59:27;;;;;;;5.55;3.35;;;;;;;6.45;85.34;98375.77;1718147;83;25606;-73
2022/02/21 02:01:54;;;;;;;5.87;3.52;;;;;;;6.40;85.36;98367.88;1705156;84;25399;-73
2022/02/21 02:04:21;;;;;;;3.77;3.10;;;;;;;6.36;85.96;98361.61;1689116;85;27884;-73
2022/02/21 02:06:48;;;;;;;4.10;3.00;;;;;;;6.33;86.20;98350.17;1705066;84;25701;-72
2022/02/21 02:09:15;;;;;;;4.10;2.85;;;;;;;6.27;86.42;98349.59;1689076;85;25576;-72
2022/02/21 02:11:44;;;;;;;7.25;3.20;;;;;;;6.25;86.40;98364.45;1705115;84;25455;-73
2022/02/21 02:14:33;;;;;;;6.12;3.30;;;;;;;6.22;87.36;98348.45;1717963;83;25629;-73
2022/02/21 02:17:10;;;;;;;5.70;3.45;;;;;;;6.19;87.31;98334.33;1687720;85;32692;-73
2022/02/21 02:19:38;;;;;;;4.03;2.85;;;;;;;6.13;87.99;98336.44;1705063;84;25168;-73
2022/02/21 02:22:11;;;;;;;5.95;3.45;;;;;;;6.11;88.44;98311.02;1689208;85;25456;-73
2022/02/21 02:24:44;;;;;;;5.30;3.30;;;;;;;6.07;88.04;98315.48;1653786;85;25862;-73
2022/02/21 02:27:12;;;;;;;6.92;3.83;;;;;;;6.03;88.43;98322.06;1687359;85;25461;-73
2022/02/21 02:29:41;;;;;;;5.62;3.30;;;;;;;6.00;89.98;98303.92;1685597;85;27371;-73
2022/02/21 02:32:09;;;;;;;6.00;3.80;;;;;;;5.98;88.95;98306.92;1715372;83;25667;-73
2022/02/21 02:34:39;;;;;;;4.47;3.10;;;;;;;5.95;89.67;98295.47;1685133;85;25427;-73
2022/02/21 02:37:06;;;;;;;7.60;3.47;;;;;;;5.93;89.96;98295.58;1715302;83;25656;-72
2022/02/21 02:39:34;;;;;;;4.37;3.30;;;;;;;5.91;90.34;98287.08;1665399;85;25681;-72
2022/02/21 02:42:00;;;;;;;5.12;3.30;;;;;;;5.88;90.55;98280.45;1715281;83;27315;-72
2022/02/21 02:44:27;;;;;;;7.20;3.52;;;;;;;5.86;90.88;98295.32;1684994;85;25681;-74
2022/02/21 02:46:53;;;;;;;3.75;2.98;;;;;;;5.84;90.59;98282.23;1715338;83;25480;-74
2022/02/21 02:49:20;;;;;;;5.15;3.02;;;;;;;5.82;90.60;98267.55;1685176;85;25574;-73
2022/02/21 02:51:47;;;;;;;8.08;3.67;;;;;;;5.78;91.49;98254.78;1715396;83;25551;-73
2022/02/21 02:54:14;;;;;;;3.58;2.83;;;;;;;5.77;91.41;98255.91;1685233;85;27534;-73
2022/02/21 02:56:43;;;;;;;5.20;3.22;;;;;;;5.75;91.36;98253.31;1715329;83;25615;-73
2022/02/21 02:59:10;;;;;;;6.10;3.58;;;;;;;5.73;91.78;98238.11;1685658;85;25586;-73
2022/02/21 03:01:37;;;;;;;5.42;3.20;;;;;;;5.72;91.39;98233.31;1715336;83;25379;-73
2022/02/21 03:04:04;;;;;;;3.75;3.25;;;;;;;5.72;92.19;98228.48;1685264;85;25626;-73
2022/02/21 03:06:30;;;;;;;3.65;2.75;;;;;;;5.69;91.65;98225.91;1717767;83;28698;-73
2022/02/21 03:08:58;;;;;;;5.42;3.37;;;;;;;5.68;92.60;98217.62;1685118;85;25641;-73
2022/02/21 03:11:26;;;;;;;3.98;3.10;;;;;;;5.67;92.45;98217.41;1715413;83;25615;-73
2022/02/21 03:13:54;;;;;;;4.67;3.08;;;;;;;5.66;92.64;98216.39;1685653;85;25568;-73
2022/02/21 03:16:21;;;;;;;4.90;3.08;;;;;;;5.65;93.54;98213.47;1716268;83;25641;-73
2022/02/21 03:18:51;;;;;;;6.40;2.98;;;;;;;5.63;92.39;98200.95;1686019;85;27327;-73
2022/02/21 03:21:17;;;;;;;4.45;3.20;;;;;;;5.63;92.78;98191.55;1715981;83;25656;-73
2022/02/21 03:23:44;;;;;;;5.15;3.10;;;;;;;5.61;92.82;98191.31;1685719;85;25506;-73
2022/02/21 03:26:10;;;;;;;4.17;2.95;;;;;;;5.59;93.26;98190.86;1715398;83;25483;-73
2022/02/21 03:28:37;;;;;;;4.00;2.95;;;;;;;5.60;93.44;98192.45;1665848;85;25652;-73
2022/02/21 03:31:04;;;;;;;3.70;3.25;;;;;;;5.59;93.86;98188.75;1715377;83;27287;-73
2022/02/21 03:33:31;;;;;;;3.20;2.90;;;;;;;5.57;93.73;98167.62;1685106;85;25452;-72
2022/02/21 03:35:57;;;;;;;4.47;2.83;;;;;;;5.57;93.89;98164.94;1715338;83;25548;-73
2022/02/21 03:38:24;;;;;;;5.58;2.70;;;;;;;5.55;93.64;98164.48;1685126;85;25678;-73
2022/02/21 03:40:52;;;;;;;3.45;2.77;;;;;;;5.54;95.06;98181.67;1715378;83;25572;-73
2022/02/21 03:43:19;;;;;;;4.33;2.50;;;;;;;5.55;94.08;98148.92;1685152;84;27326;-73
2022/02/21 03:45:45;;;;;;;3.40;2.80;;;;;;;5.53;94.22;98150.59;1715265;83;25725;-73
2022/02/21 03:48:12;;;;;;;4.55;3.10;;;;;;;5.54;94.03;98140.11;1685195;85;25610;-72
2022/02/21 03:50:38;;;;;;;6.05;3.12;;;;;;;5.52;95.31;98141.00;1715367;83;25599;-73
2022/02/21 03:53:05;;;;;;;5.58;3.08;;;;;;;5.53;94.93;98128.36;1685255;85;25421;-73
2022/02/21 03:55:31;;;;;;;5.08;2.75;;;;;;;5.52;94.87;98118.77;1695002;83;28039;-73
2022/02/21 03:57:59;;;;;;;3.70;2.65;;;;;;;5.51;95.38;98128.69;1685429;85;25688;-74
2022/02/21 04:00:28;;;;;;;5.62;2.95;;;;;;;5.50;94.67;98120.44;1695769;83;25593;-74
2022/02/21 04:02:55;;;;;;;4.30;2.70;;;;;;;5.51;94.75;98103.78;1685536;85;25608;-74
2022/02/21 04:05:21;;;;;;;5.10;3.22;;;;;;;5.50;95.35;98103.00;1715644;83;25590;-73
2022/02/21 04:07:48;;;;;;;4.25;3.10;;;;;;;5.49;94.86;98097.41;1685362;85;27319;-73
2022/02/21 04:10:19;;;;;;;6.28;2.70;;;;;;;5.50;95.24;98092.81;1715334;83;25640;-74
2022/02/21 04:12:46;;;;;;;5.58;2.77;;;;;;;5.49;96.00;98085.34;1685232;85;25201;-74
2022/02/21 04:15:13;;;;;;;4.25;3.22;;;;;;;5.49;95.28;98077.29;1715380;83;25604;-75
2022/02/21 04:17:47;;;;;;;4.15;2.52;;;;;;;5.48;95.68;98078.39;1685361;84;25560;-74
2022/02/21 04:20:18;;;;;;;3.33;2.25;;;;;;;5.48;95.72;98066.33;1715503;83;27330;-74
2022/02/21 04:22:46;;;;;;;4.20;2.65;;;;;;;5.47;95.93;98054.05;1685191;85;25573;-74
2022/02/21 04:25:14;;;;;;;4.45;2.27;;;;;;;5.47;96.22;98054.61;1715472;83;25394;-74
2022/02/21 04:27:52;;;;;;;6.33;2.83;;;;;;;5.48;96.58;98048.13;1675538;83;25664;-76
2022/02/21 04:30:24;;;;;;;4.55;2.72;;;;;;;5.46;96.49;98040.41;1685325;85;25633;-74
2022/02/21 04:32:52;;;;;;;2.92;2.25;;;;;;;5.46;95.98;98024.88;1687600;84;27063;-74
2022/02/21 04:35:21;;;;;;;4.35;2.42;;;;;;;5.46;96.10;98022.20;1688209;85;25655;-74
2022/02/21 04:37:49;;;;;;;3.37;2.80;;;;;;;5.45;96.15;98018.75;1688351;84;25400;-74
2022/02/21 04:40:20;;;;;;;4.17;2.50;;;;;;;5.46;96.64;98014.16;1693648;84;26313;-74
2022/02/21 04:42:53;;;;;;;4.85;2.50;;;;;;;5.46;96.33;98006.89;1693602;84;25616;-74
2022/02/21 04:45:15;;;;;;;4.80;2.83;;;;;;;5.49;96.66;97999.53;1692992;84;27508;-74
2022/02/21 04:47:42;;;;;;;4.17;2.62;;;;;;;5.47;96.87;97997.74;1693611;84;25571;-74
2022/02/21 04:50:11;;;;;;;2.40;2.20;;;;;;;5.48;97.10;97981.86;1693641;84;25344;-75
2022/02/21 04:52:38;;;;;;;3.53;2.30;;;;;;;5.49;97.31;97979.42;1693845;84;26159;-75
2022/02/21 04:55:07;;;;;;;2.40;2.20;;;;;;;5.51;96.68;97972.39;1693599;84;25419;-75
2022/02/21 04:57:36;;;;;;;2.87;2.27;;;;;;;5.53;97.16;97979.54;1693865;84;27187;-75
2022/02/21 05:00:08;;;;;;;4.17;2.30;;;;;;;5.53;96.85;97984.33;1694013;84;25611;-75
2022/02/21 05:02:34;;;;;;;2.72;2.40;;;;;;;5.54;97.10;97963.69;1696849;84;25605;-76
2022/02/21 05:05:00;;;;;;;3.45;2.40;;;;;;;5.55;98.01;97978.64;1673449;84;25653;-76
2022/02/21 05:07:27;;;;;;;2.90;2.50;;;;;;;5.56;98.56;98007.04;1693589;84;25652;-76
2022/02/21 05:09:53;;;;;;;4.05;2.60;;;;;;;5.56;98.21;97990.38;1673518;84;27146;-77
2022/02/21 05:12:20;;;;;;;5.17;2.35;;;;;;;5.56;97.80;97980.22;1693467;84;25448;-77
2022/02/21 05:14:47;;;;;;;3.42;2.20;;;;;;;5.57;98.10;97972.41;1693544;84;25624;-77
2022/02/21 05:17:13;;;;;;;3.33;2.33;;;;;;;5.57;98.46;97971.07;1693540;84;25616;-77
2022/02/21 05:19:39;;;;;;;4.42;2.12;;;;;;;5.58;97.98;97976.64;1673444;84;25504;-77
2022/02/21 05:22:06;;;;;;;4.47;2.33;;;;;;;5.58;98.10;97971.28;1693558;84;27980;-77
2022/02/21 05:24:32;;;;;;;4.80;2.17;;;;;;;5.59;99.11;97956.77;1693475;84;25553;-78
2022/02/21 05:26:59;;;;;;;3.37;2.35;;;;;;;5.59;98.68;97974.20;1694659;84;25506;-78
2022/02/21 05:29:26;;;;;;;2.75;2.08;;;;;;;5.60;98.04;97961.00;1700598;84;25645;-77
2022/02/21 05:31:52;;;;;;;3.85;2.47;;;;;;;5.59;99.26;97981.68;1699556;84;25640;-77
2022/02/21 05:34:19;;;;;;;3.42;2.17;;;;;;;5.60;98.75;97965.83;1699518;83;27993;-78
2022/02/21 05:36:45;;;;;;;3.77;2.40;;;;;;;5.62;98.61;97942.70;1699453;84;25582;-77
2022/02/21 05:39:12;;;;;;;3.47;2.30;;;;;;;5.63;99.49;97970.29;1699587;83;25454;-76
2022/02/21 05:41:38;;;;;;;3.27;2.55;;;;;;;5.63;99.00;97945.59;1699320;84;26154;-77
2022/02/21 05:44:05;;;;;;;2.85;1.95;;;;;;;5.63;98.90;97951.52;1699834;84;25610;-77
2022/02/21 05:46:34;;;;;;;2.22;1.95;;;;;;;5.64;99.68;97963.83;1699757;84;27933;-77
2022/02/21 05:49:01;;;;;;;3.35;2.12;;;;;;;5.64;99.15;97946.39;1699791;84;25566;-77
2022/02/21 05:51:27;;;;;;;5.00;2.35;;;;;;;5.64;99.48;97953.09;1699727;84;25555;-78
2022/02/21 05:53:54;;;;;;;4.75;2.62;;;;;;;5.64;99.57;97937.00;1699786;84;26277;-77
2022/02/21 05:56:21;;;;;;;2.98;2.33;;;;;;;5.63;98.98;97940.79;1699726;84;25594;-78
2022/02/21 05:58:47;;;;;;;3.50;2.25;;;;;;;5.63;99.81;97943.47;1699976;83;27325;-76
2022/02/21 06:01:14;;;;;;;5.60;2.05;;;;;;;5.64;99.49;97936.44;1699556;84;25551;-77
2022/02/21 06:03:43;;;;;;;2.47;2.20;;;;;;;5.63;99.90;97937.54;1699674;84;25460;-77
2022/02/21 06:06:10;;;;;;;4.70;2.37;;;;;;;5.64;100.00;97931.08;1699548;84;25655;-77
2022/02/21 06:08:37;;;;;;;2.90;2.25;;;;;;;5.65;100.00;97915.75;1699626;83;25641;-77
2022/02/21 06:11:04;;;;;;;2.77;1.92;;;;;;;5.66;100.00;97922.70;1699536;84;27445;-77
2022/02/21 06:13:31;;;;;;;4.78;2.15;;;;;;;5.66;99.74;97938.79;1699529;84;25416;-77
2022/02/21 06:15:59;;;;;;;2.27;2.00;;;;;;;5.66;99.69;97915.42;1675477;84;25598;-77
2022/02/21 06:18:26;;;;;;;3.25;2.30;;;;;;;5.66;99.94;97910.06;1671946;84;25630;-77
2022/02/21 06:20:53;;;;;;;4.40;2.02;;;;;;;5.67;100.00;97908.95;1699193;84;25760;-78
2022/02/21 06:23:19;;;;;;;2.52;1.90;;;;;;;5.69;99.56;97903.26;1699296;84;27341;-78
2022/02/21 06:25:47;;;;;;;2.65;2.00;;;;;;;5.69;100.00;97901.34;1675160;84;25510;-78
2022/02/21 06:28:13;;;;;;;3.98;2.33;;;;;;;5.69;100.00;97904.60;1699439;84;25626;-78
2022/02/21 06:30:40;;;;;;;4.90;2.33;;;;;;;5.71;100.00;97890.29;1699525;83;26149;-79
2022/02/21 06:33:07;;;;;;;2.85;1.92;;;;;;;5.70;100.00;97890.83;1699486;84;25710;-78
2022/02/21 06:35:34;;;;;;;4.00;2.05;;;;;;;5.71;100.00;97889.72;1699805;84;27335;-78
2022/02/21 06:38:04;;;;;;;8.20;1.82;;;;;;;5.73;99.70;97906.26;1700052;84;25617;-77
2022/02/21 06:40:30;;;;;;;2.42;2.20;;;;;;;5.74;100.00;97909.17;1699500;84;25605;-77
2022/02/21 06:42:57;;;;;;;3.27;1.82;;;;;;;5.75;100.00;97896.54;1699479;84;25630;-78
2022/02/21 06:45:26;;;;;;;4.15;2.00;;;;;;;5.76;100.00;97883.36;1675656;84;25520;-78
2022/02/21 06:47:54;;;;;;;2.67;1.82;;;;;;;5.76;100.00;97880.68;1699757;84;27328;-78
2022/02/21 06:50:20;;;;;;;6.78;2.50;;;;;;;5.77;100.00;97884.91;1699450;84;25631;-77
2022/02/21 06:52:47;;;;;;;4.33;2.05;;;;;;;5.78;100.00;97873.07;1699825;83;25479;-78
2022/02/21 06:55:14;;;;;;;4.17;2.30;;;;;;;5.82;100.00;97875.86;1699616;84;25622;-78
2022/02/21 06:57:44;;;;;;;3.33;1.87;;;;;;;5.82;100.00;97870.50;1700158;84;25566;-79
2022/02/21 07:00:11;;;;;;;;;;;;;;;5.83;100.00;97880.13;1702319;84;27400;-78
2022/02/21 07:02:38;;;;;;;2.98;2.08;;;;;;;5.82;100.00;97857.86;1699862;84;25702;-78
2022/02/21 07:05:07;;;;;;;3.60;2.00;;;;;;;5.83;100.00;97866.70;1699922;84;25439;-79
2022/02/21 07:07:35;;;;;;;4.05;2.52;;;;;;;5.82;100.00;97852.48;1700170;84;25613;-79
2022/02/21 07:10:03;;;;;;;4.45;2.25;;;;;;;5.85;99.97;97846.45;1699924;84;25589;-78
2022/02/21 07:12:30;;;;;;;3.67;2.20;;;;;;;5.86;99.93;97853.97;1717927;82;27313;-78
2022/02/21 07:14:57;;;;;;;3.02;2.25;;;;;;;5.86;100.00;97852.63;1688547;82;25750;-77
2022/02/21 07:17:23;;;;;;;5.10;2.98;;;;;;;5.85;99.62;97849.70;1686724;85;25710;-79
2022/02/21 07:19:51;;;;;;;6.50;3.50;;;;;;;5.86;100.00;97853.97;1686757;85;26638;-78
2022/02/21 07:22:18;;;;;;;6.62;3.50;;;;;;;5.85;100.00;97855.08;1664472;85;25691;-78
2022/02/21 07:24:45;;;;;;;5.58;3.50;;;;;;;5.87;100.00;97845.55;1689724;84;27999;-77
2022/02/21 07:27:12;;;;;;;3.87;3.05;;;;;;;5.87;100.00;97846.90;1689718;84;25719;-77
2022/02/21 07:29:38;;;;;;;4.45;3.10;;;;;;;5.88;100.00;97849.81;1693002;84;25754;-77
2022/02/21 07:32:06;;;;;;;7.28;3.08;;;;;;;5.88;100.00;97847.13;1693188;84;25688;-78
2022/02/21 07:34:34;;;;;;;5.35;2.98;;;;;;;5.89;100.00;97858.09;1693464;84;26349;-78
2022/02/21 07:37:01;;;;;;;9.13;3.08;;;;;;;5.91;100.00;97850.48;1699281;84;27379;-76
2022/02/21 07:39:33;;;;;;;5.03;2.65;;;;;;;5.91;100.00;97854.52;1700665;83;25787;-77
2022/02/21 07:41:56;;;;;;;5.15;2.55;;;;;;;5.92;100.00;97864.11;1691497;84;26300;-77
2022/02/21 07:44:23;;;;;;;5.80;2.50;;;;;;;5.93;100.00;97859.55;1707265;83;25689;-76
2022/02/21 07:46:50;;;;;;;5.75;2.85;;;;;;;5.94;100.00;97844.45;1697536;84;25684;-76
2022/02/21 07:49:17;;;;;;;7.60;3.87;;;;;;;5.97;100.00;97863.91;1697385;84;27322;-75
2022/02/21 07:51:44;;;;;;;6.60;3.67;;;;;;;6.00;100.00;97854.98;1675216;84;26285;-75
2022/02/21 07:54:10;;;;;;;4.12;2.87;;;;;;;6.03;100.00;97864.48;1697512;84;25674;-76
2022/02/21 07:56:37;;;;;;;3.45;2.80;;;;;;;6.04;100.00;97857.97;1675485;84;25715;-76
2022/02/21 07:59:04;;;;;;;3.98;2.42;;;;;;;6.08;100.00;97857.53;1690795;84;25749;-76
2022/02/21 08:01:30;;;;;;;3.85;2.33;;;;;;;6.11;100.00;97850.70;1697641;84;27312;-76
2022/02/21 08:03:57;;;;;;;3.12;2.17;;;;;;;6.14;100.00;97848.69;1690640;84;25661;-76
2022/02/21 08:06:23;;;;;;;4.47;2.02;;;;;;;6.18;100.00;97840.19;1690768;84;25713;-75
2022/02/21 08:08:50;;;;;;;3.42;1.98;;;;;;;6.21;99.98;97836.03;1690544;84;25669;-74
2022/02/21 08:11:16;;;;;;;2.42;2.20;;;;;;;6.24;100.00;97843.41;1697605;84;25414;-75
2022/02/21 08:13:43;;;;;;;2.65;2.12;;;;;;;6.26;100.00;97868.78;1695436;84;27854;-76
2022/02/21 08:16:10;;;;;;;3.30;1.95;;;;;;;6.29;100.00;97852.57;1687073;83;25907;-74
2022/02/21 08:18:36;;;;;;;3.20;2.50;;;;;;;6.30;99.62;97837.47;1697148;84;25683;-75
2022/02/21 08:21:03;;;;;;;5.60;2.40;;;;;;;6.33;99.45;97840.82;1697088;84;25736;-74
2022/02/21 08:23:29;;;;;;;6.08;2.30;;;;;;;6.34;99.42;97834.88;1697131;84;25719;-75
2022/02/21 08:25:56;;;;;;;4.67;2.20;;;;;;;6.35;99.37;97854.69;1697108;84;27336;-75
2022/02/21 08:28:23;;;;;;;2.77;1.90;;;;;;;6.38;99.42;97847.06;1697663;84;25713;-75
2022/02/21 08:30:49;;;;;;;4.42;2.15;;;;;;;6.41;99.37;97855.78;1699188;84;25708;-75
2022/02/21 08:33:16;;;;;;;5.17;2.20;;;;;;;6.42;99.23;97870.22;1699118;84;25853;-75
2022/02/21 08:35:42;;;;;;;2.45;2.17;;;;;;;6.45;98.99;97849.41;1699136;84;25831;-76
2022/02/21 08:38:09;;;;;;;3.47;2.08;;;;;;;6.49;98.95;97873.67;1699157;84;27931;-76
2022/02/21 08:40:36;;;;;;;4.55;1.87;;;;;;;6.51;98.91;97860.11;1699211;84;25677;-75
2022/02/21 08:43:02;;;;;;;3.95;1.95;;;;;;;6.56;98.48;97861.00;1699268;84;25751;-75
2022/02/21 08:45:29;;;;;;;4.70;2.40;;;;;;;6.61;98.14;97847.33;1699170;84;25769;-75
2022/02/21 08:47:55;;;;;;;4.42;2.15;;;;;;;6.64;98.03;97854.14;1699196;84;25715;-75
2022/02/21 08:50:22;;;;;;;4.53;2.65;;;;;;;6.68;97.73;97863.06;1699189;84;27392;-75
2022/02/21 08:52:48;;;;;;;3.33;1.77;;;;;;;6.72;97.57;97837.64;1699162;84;25750;-75
2022/02/21 08:55:15;;;;;;;5.15;2.37;;;;;;;6.75;96.98;97879.95;1699168;84;25820;-75
2022/02/21 08:57:43;;;;;;;3.27;2.42;;;;;;;6.80;96.98;97839.97;1699083;84;25687;-75
2022/02/21 09:00:12;;;;;;;2.00;1.80;;;;;;;6.84;96.84;97839.48;1699211;84;25724;-75
2022/02/21 09:02:39;;;;;;;3.92;2.33;;;;;;;6.89;96.49;97844.61;1699521;84;27995;-75
2022/02/21 09:05:06;;;;;;;6.58;2.40;;;;;;;6.94;96.62;97843.59;1699184;84;25723;-75
2022/02/21 09:07:33;;;;;;;3.77;2.27;;;;;;;6.97;96.33;97853.09;1699194;84;26364;-75
2022/02/21 09:09:59;;;;;;;7.95;4.72;;;;;;;7.02;95.94;97857.44;1676952;84;25767;-75
2022/02/21 09:12:26;;;;;;;2.17;1.87;;;;;;;7.06;95.80;97841.59;1699364;84;25778;-76
2022/02/21 09:14:56;;;;;;;6.15;3.15;;;;;;;7.11;95.13;97837.88;1699292;84;28053;-75
2022/02/21 09:17:21;;;;;;;2.75;1.75;;;;;;;7.17;94.63;97865.28;1699128;84;25786;-74
2022/02/21 09:19:50;;;;;;;3.70;2.05;;;;;;;7.22;94.09;97877.93;1699169;84;25746;-74
2022/02/21 09:22:16;;;;;;;5.00;2.25;;;;;;;7.28;93.77;97861.73;1699411;84;26194;-74
2022/02/21 09:24:43;;;;;;;4.97;2.20;;;;;;;7.34;93.88;97865.52;1699734;84;25867;-75
2022/02/21 09:27:09;;;;;;;3.92;2.20;;;;;;;7.39;92.61;97870.64;1699258;84;27878;-76
2022/02/21 09:29:36;;;;;;;3.45;1.92;;;;;;;7.44;92.54;97881.14;1697554;84;25778;-75
2022/02/21 09:32:03;;;;;;;5.22;2.10;;;;;;;7.48;91.08;97873.38;1697057;84;25767;-75
2022/02/21 09:34:29;;;;;;;3.08;1.82;;;;;;;7.57;92.12;97868.39;1696973;84;25735;-75
2022/02/21 09:36:56;;;;;;;4.37;1.80;;;;;;;7.63;92.19;97877.20;1697070;84;25418;-77
2022/02/21 09:39:22;;;;;;;3.77;1.67;;;;;;;7.67;91.61;97907.66;1696794;84;28527;-75
2022/02/21 09:41:50;;;;;;;3.90;1.70;;;;;;;7.70;91.30;97872.56;1697195;84;25688;-74
2022/02/21 09:44:17;;;;;;;3.83;1.80;;;;;;;7.75;90.25;97856.72;1697903;84;25712;-75
2022/02/21 09:46:48;;;;;;;5.10;1.90;;;;;;;7.81;90.46;97862.03;1698317;84;25667;-75
2022/02/21 09:49:20;;;;;;;5.25;1.92;;;;;;;7.84;90.09;97864.03;1678361;84;25768;-75
2022/02/21 09:51:47;;;;;;;4.97;1.87;;;;;;;7.86;88.75;97865.80;1698139;84;28018;-75
2022/02/21 09:54:15;;;;;;;2.80;1.85;;;;;;;7.92;89.05;97878.45;1697646;84;25767;-76
2022/02/21 09:56:44;;;;;;;2.95;1.75;;;;;;;7.95;89.43;97874.48;1697349;84;26335;-75
2022/02/21 09:59:12;;;;;;;3.03;1.80;;;;;;;7.97;89.20;97883.56;1697376;84;26356;-75
2022/02/21 10:01:39;;;;;;;4.08;2.30;;;;;;;7.98;87.80;97896.64;1697357;84;25324;-76
2022/02/21 10:04:06;;;;;;;4.58;1.77;;;;;;;8.03;87.95;97889.64;1697356;84;27308;-75
2022/02/21 10:06:33;;;;;;;3.08;1.95;;;;;;;8.10;86.79;97865.37;1676875;84;25813;-76
2022/02/21 10:09:10;;;;;;;4.45;2.30;;;;;;;8.15;87.90;97875.29;1697141;84;25716;-75
2022/02/21 10:11:42;;;;;;;3.58;1.90;;;;;;;8.21;86.43;97872.55;1696666;84;26382;-75
2022/02/21 10:14:21;;;;;;;3.70;1.70;;;;;;;8.25;86.95;97873.97;1695565;84;25807;-76
2022/02/21 10:16:50;;;;;;;;;;;;;;;8.29;86.62;97876.19;1699538;84;27242;-75
2022/02/21 10:19:30;;;;;;;3.72;1.70;;;;;;;8.33;86.54;97861.45;1696905;84;25790;-75
2022/02/21 10:22:10;;;;;;;3.27;1.72;;;;;;;8.38;85.97;97870.59;1696944;84;25796;-74
2022/02/21 10:24:48;;;;;;;3.47;1.92;;;;;;;8.43;84.17;97874.39;1696894;84;25720;-74
2022/02/21 10:27:28;;;;;;;3.87;1.83;;;;;;;8.49;85.40;97866.80;1675544;84;25775;-73
2022/02/21 10:29:54;;;;;;;4.55;1.62;;;;;;;8.52;83.36;97875.52;1696691;84;27468;-73
2022/02/21 10:32:28;;;;;;;5.83;2.02;;;;;;;8.57;84.59;97862.54;1698832;84;25693;-73
2022/02/21 10:34:58;;;;;;;2.58;1.65;;;;;;;8.62;83.56;97875.53;1698539;84;25794;-72
2022/02/21 10:37:27;;;;;;;2.95;1.87;;;;;;;8.62;81.97;97880.34;1698719;84;27110;-73
2022/02/21 10:40:14;;;;;;;3.80;2.22;;;;;;;8.64;82.34;97868.64;1698945;84;25694;-73
2022/02/21 10:42:44;;;;;;;2.30;1.57;;;;;;;8.67;81.83;97867.17;1698855;84;28001;-73
2022/02/21 10:45:15;;;;;;;3.37;1.95;;;;;;;8.68;80.77;97876.80;1698712;84;25796;-73
2022/02/21 10:48:05;;;;;;;3.83;1.85;;;;;;;8.68;81.37;97866.02;1698804;84;25802;-76
2022/02/21 10:50:40;;;;;;;;;;;;;;;8.69;79.60;97881.06;1701489;84;25787;-75
2022/02/21 10:53:13;;;;;;;3.30;1.95;;;;;;;8.72;80.73;97873.05;1689694;84;25761;-75
2022/02/21 10:55:45;;;;;;;3.52;1.70;;;;;;;8.76;81.30;97869.06;1699085;84;27349;-75
2022/02/21 10:58:24;;;;;;;3.05;1.72;;;;;;;8.78;80.86;97870.83;1675968;84;25888;-73
2022/02/21 11:00:52;;;;;;;3.27;1.65;;;;;;;8.79;80.03;97862.39;1699056;84;26291;-75
2022/02/21 11:03:25;;;;;;;4.83;1.95;;;;;;;8.82;79.06;97874.94;1676467;84;26164;-76
2022/02/21 11:05:55;;;;;;;2.50;1.70;;;;;;;8.85;79.77;97863.45;1698996;84;25713;-76
2022/02/21 11:08:22;;;;;;;5.25;2.00;;;;;;;8.87;79.15;97870.06;1699002;84;28283;-75
2022/02/21 11:10:53;;;;;;;3.45;2.42;;;;;;;8.90;79.28;97876.06;1699028;84;25838;-75
2022/02/21 11:13:21;;;;;;;3.33;1.90;;;;;;;8.93;78.43;97887.48;1699196;84;25685;-76
2022/02/21 11:15:50;;;;;;;5.33;1.92;;;;;;;8.92;76.85;97889.99;1699016;84;25625;-74
2022/02/21 11:18:18;;;;;;;3.22;1.90;;;;;;;8.90;77.38;97898.20;1676989;84;25786;-75
2022/02/21 11:20:44;;;;;;;2.87;1.60;;;;;;;8.87;77.09;97915.89;1700307;84;27327;-75
2022/02/21 11:23:15;;;;;;;3.27;1.60;;;;;;;8.78;75.91;97900.48;1700302;84;25847;-75
2022/02/21 11:25:58;;;;;;;2.52;1.60;;;;;;;8.79;76.15;97927.66;1699100;84;26433;-75
2022/02/21 11:28:44;;;;;;;2.90;1.72;;;;;;;8.75;76.60;97937.02;1699080;84;25728;-75
2022/02/21 11:31:14;;;;;;;3.40;1.98;;;;;;;8.73;76.80;97943.31;1618123;88;25785;-75
2022/02/21 11:34:09;;;;;;;2.47;1.60;;;;;;;8.64;77.20;97960.27;1618299;88;28437;-75
2022/02/21 11:36:38;;;;;;;5.05;2.37;;;;;;;8.49;77.87;97992.84;1636535;87;25732;-76
2022/02/21 11:39:28;;;;;;;2.90;1.57;;;;;;;8.12;77.98;97982.38;1613468;88;34948;-76
2022/02/21 11:42:19;;;;;;;4.58;2.00;;;;;;;7.79;78.69;97984.83;1636221;87;25919;-75
2022/02/21 11:44:50;;;;;;;3.92;2.33;;;;;;;7.44;78.91;98002.97;1613288;88;26460;-75
2022/02/21 11:47:36;;;;;;;3.00;1.55;;;;;;;7.21;79.96;97995.23;1636504;87;27342;-75